createdAt,value
2022-11-01T00:00:50.600Z,100.00
2022-11-01T00:03:18.148Z,100.00
2022-11-01T00:05:47.739Z,100.00
2022-11-01T00:08:15.368Z,100.00
2022-11-01T00:10:42.863Z,100.00
2022-11-01T00:13:10.366Z,100.00
2022-11-01T00:15:37.944Z,100.00
2022-11-01T00:18:05.470Z,100.00
2022-11-01T00:20:32.990Z,100.00
2022-11-01T00:23:02.139Z,100.00
2022-11-01T00:25:29.897Z,100.00
2022-11-01T00:27:57.415Z,100.00
2022-11-01T00:30:24.934Z,100.00
2022-11-01T00:32:52.434Z,100.00
2022-11-01T00:35:19.931Z,100.00
2022-11-01T00:37:47.443Z,100.00
2022-11-01T00:40:16.517Z,100.00
2022-11-01T00:42:44.038Z,100.00
2022-11-01T00:45:11.965Z,100.00
2022-11-01T00:47:39.457Z,100.00
2022-11-01T00:50:08.012Z,100.00
2022-11-01T00:52:35.633Z,100.00
2022-11-01T00:55:03.158Z,100.00
2022-11-01T00:57:31.990Z,100.00
2022-11-01T00:59:59.846Z,100.00
2022-11-01T01:02:27.509Z,100.00
2022-11-01T01:04:55.073Z,100.00
2022-11-01T01:07:22.721Z,100.00
2022-11-01T01:09:50.276Z,100.00
2022-11-01T01:12:17.799Z,100.00
2022-11-01T01:14:46.699Z,100.00
2022-11-01T01:17:14.247Z,100.00
2022-11-01T01:19:41.835Z,100.00
2022-11-01T01:22:09.444Z,100.00
2022-11-01T01:24:36.983Z,100.00
2022-11-01T01:27:04.654Z,100.00
2022-11-01T01:29:32.161Z,100.00
2022-11-01T01:32:01.029Z,100.00
2022-11-01T01:34:28.558Z,100.00
2022-11-01T01:36:56.067Z,100.00
2022-11-01T01:39:23.680Z,100.00
2022-11-01T01:41:57.149Z,100.00
2022-11-01T01:45:17.086Z,100.00
2022-11-01T01:47:49.859Z,100.00
2022-11-01T01:50:21.404Z,100.00
2022-11-01T01:52:52.438Z,100.00
2022-11-01T01:55:22.614Z,100.00
2022-11-01T01:57:51.364Z,100.00
2022-11-01T02:00:19.564Z,100.00
2022-11-01T02:02:48.480Z,100.00
2022-11-01T02:05:23.055Z,100.00
2022-11-01T02:07:51.213Z,100.00
2022-11-01T02:10:19.490Z,100.00
2022-11-01T02:12:48.864Z,100.00
2022-11-01T02:15:17.553Z,100.00
2022-11-01T02:17:57.081Z,100.00
2022-11-01T02:20:42.926Z,100.00
2022-11-01T02:23:32.602Z,100.00
2022-11-01T02:26:20.270Z,100.00
2022-11-01T02:29:05.626Z,100.00
2022-11-01T02:31:56.342Z,100.00
2022-11-01T02:34:29.586Z,100.00
2022-11-01T02:37:01.007Z,100.00
2022-11-01T02:39:34.356Z,100.00
2022-11-01T02:42:07.828Z,100.00
2022-11-01T02:44:39.571Z,100.00
2022-11-01T02:47:11.851Z,100.00
2022-11-01T02:49:41.726Z,100.00
2022-11-01T02:52:12.209Z,100.00
2022-11-01T02:54:43.376Z,100.00
2022-11-01T02:57:28.091Z,100.00
2022-11-01T03:00:02.937Z,100.00
2022-11-01T03:02:40.465Z,100.00
2022-11-01T03:05:20.483Z,100.00
2022-11-01T03:07:53.143Z,100.00
2022-11-01T03:10:22.363Z,100.00
2022-11-01T03:12:56.442Z,100.00
2022-11-01T03:15:29.005Z,100.00
2022-11-01T03:18:02.656Z,100.00
2022-11-01T03:20:48.207Z,100.00
2022-11-01T03:23:20.738Z,100.00
2022-11-01T03:25:52.189Z,100.00
2022-11-01T03:28:24.649Z,100.00
2022-11-01T03:30:56.337Z,100.00
2022-11-01T03:33:26.719Z,100.00
2022-11-01T03:35:58.436Z,100.00
2022-11-01T03:38:30.463Z,100.00
2022-11-01T03:41:04.467Z,100.00
2022-11-01T03:43:36.477Z,100.00
2022-11-01T03:46:04.256Z,100.00
2022-11-01T03:48:33.167Z,100.00
2022-11-01T03:51:00.712Z,100.00
2022-11-01T03:53:28.481Z,100.00
2022-11-01T03:55:56.127Z,100.00
2022-11-01T03:58:23.794Z,100.00
2022-11-01T04:00:51.696Z,100.00
2022-11-01T04:03:19.256Z,100.00
2022-11-01T04:05:48.099Z,100.00
2022-11-01T04:08:15.781Z,100.00
2022-11-01T04:10:44.657Z,100.00
2022-11-01T04:13:12.133Z,100.00
2022-11-01T04:15:57.028Z,100.00
2022-11-01T04:18:42.868Z,100.00
2022-11-01T04:21:14.264Z,100.00
2022-11-01T04:23:42.782Z,100.00
2022-11-01T04:26:12.976Z,100.00
2022-11-01T04:28:40.573Z,100.00
2022-11-01T04:31:08.566Z,100.00
2022-11-01T04:33:36.053Z,100.00
2022-11-01T04:36:05.959Z,100.00
2022-11-01T04:38:34.938Z,100.00
2022-11-01T04:41:02.467Z,100.00
2022-11-01T04:43:29.973Z,100.00
2022-11-01T04:45:58.328Z,100.00
2022-11-01T04:48:26.403Z,100.00
2022-11-01T04:50:54.463Z,100.00
2022-11-01T04:53:21.965Z,100.00
2022-11-01T04:55:50.834Z,100.00
2022-11-01T04:58:18.348Z,100.00
2022-11-01T05:00:45.945Z,100.00
2022-11-01T05:03:13.550Z,100.00
2022-11-01T05:05:41.203Z,100.00
2022-11-01T05:08:11.252Z,100.00
2022-11-01T05:10:41.036Z,100.00
2022-11-01T05:13:10.958Z,100.00
2022-11-01T05:15:40.107Z,100.00
2022-11-01T05:18:11.274Z,100.00
2022-11-01T05:20:38.779Z,100.00
2022-11-01T05:23:06.722Z,100.00
2022-11-01T05:25:37.926Z,100.00
2022-11-01T05:28:07.670Z,100.00
2022-11-01T05:30:37.658Z,100.00
2022-11-01T05:33:07.048Z,100.00
2022-11-01T05:35:35.962Z,100.00
2022-11-01T05:38:05.096Z,100.00
2022-11-01T05:40:33.113Z,100.00
2022-11-01T05:43:00.924Z,100.00
2022-11-01T05:45:28.684Z,100.00
2022-11-01T05:48:02.790Z,100.00
2022-11-01T05:50:30.349Z,100.00
2022-11-01T05:53:05.370Z,100.00
2022-11-01T05:55:32.922Z,100.00
2022-11-01T05:58:00.534Z,100.00
2022-11-01T06:00:28.072Z,100.00
2022-11-01T06:02:58.223Z,100.00
2022-11-01T06:05:25.900Z,100.00
2022-11-01T06:07:53.423Z,100.00
2022-11-01T06:10:21.017Z,100.00
2022-11-01T06:12:48.612Z,100.00
2022-11-01T06:15:16.368Z,100.00
2022-11-01T06:17:43.893Z,100.00
2022-11-01T06:20:13.565Z,100.00
2022-11-01T06:22:41.176Z,100.00
2022-11-01T06:25:09.771Z,100.00
2022-11-01T06:27:37.267Z,100.00
2022-11-01T06:30:05.830Z,100.00
2022-11-01T06:32:33.376Z,100.00
2022-11-01T06:35:00.904Z,100.00
2022-11-01T06:37:29.924Z,100.00
2022-11-01T06:39:57.433Z,100.00
2022-11-01T06:42:24.979Z,100.00
2022-11-01T06:44:52.473Z,100.00
2022-11-01T06:47:20.031Z,100.00
2022-11-01T06:49:47.535Z,100.00
2022-11-01T06:52:15.073Z,100.00
2022-11-01T06:54:43.961Z,100.00
2022-11-01T06:57:11.593Z,100.00
2022-11-01T06:59:39.447Z,100.00
2022-11-01T07:02:12.430Z,100.00
2022-11-01T07:04:41.607Z,100.00
2022-11-01T07:07:09.162Z,100.00
2022-11-01T07:09:36.719Z,100.00
2022-11-01T07:12:05.762Z,100.00
2022-11-01T07:14:33.340Z,100.00
2022-11-01T07:17:00.879Z,100.00
2022-11-01T07:19:28.400Z,100.00
2022-11-01T07:21:55.940Z,100.00
2022-11-01T07:24:23.625Z,100.00
2022-11-01T07:26:51.143Z,100.00
2022-11-01T07:29:20.545Z,100.00
2022-11-01T07:31:48.118Z,100.00
2022-11-01T07:34:15.913Z,100.00
2022-11-01T07:36:43.421Z,100.00
2022-11-01T07:39:11.483Z,100.00
2022-11-01T07:41:38.995Z,100.00
2022-11-01T07:44:06.544Z,100.00
2022-11-01T07:46:35.429Z,100.00
2022-11-01T07:49:03.365Z,100.00
2022-11-01T07:51:30.848Z,100.00
2022-11-01T07:54:02.166Z,100.00
2022-11-01T07:56:29.673Z,100.00
2022-11-01T07:58:57.186Z,100.00
2022-11-01T08:01:24.742Z,100.00
2022-11-01T08:03:53.701Z,100.00
2022-11-01T08:08:49.658Z,100.00
2022-11-01T08:11:17.159Z,100.00
2022-11-01T08:13:45.235Z,100.00
2022-11-01T08:16:17.932Z,100.00
2022-11-01T08:18:46.074Z,100.00
2022-11-01T08:21:18.613Z,100.00
2022-11-01T08:23:46.463Z,100.00
2022-11-01T08:26:14.174Z,100.00
2022-11-01T08:28:41.716Z,100.00
2022-11-01T08:31:11.418Z,100.00
2022-11-01T08:33:39.020Z,100.00
2022-11-01T08:36:06.974Z,100.00
2022-11-01T08:38:35.888Z,100.00
2022-11-01T08:41:03.423Z,100.00
2022-11-01T08:43:30.971Z,100.00
2022-11-01T08:46:00.107Z,100.00
2022-11-01T08:48:27.693Z,100.00
2022-11-01T08:50:55.193Z,100.00
2022-11-01T08:53:24.780Z,100.00
2022-11-01T08:55:57.274Z,100.00
2022-11-01T08:58:25.125Z,100.00
2022-11-01T09:00:52.737Z,100.00
2022-11-01T09:03:20.303Z,100.00
2022-11-01T09:05:48.612Z,100.00
2022-11-01T09:08:16.191Z,100.00
2022-11-01T09:10:43.723Z,100.00
2022-11-01T09:13:12.683Z,100.00
2022-11-01T09:15:40.546Z,100.00
2022-11-01T09:18:08.880Z,100.00
2022-11-01T09:20:36.397Z,100.00
2022-11-01T09:23:04.545Z,99.96
2022-11-01T09:25:32.478Z,100.00
2022-11-01T09:28:00.007Z,100.00
2022-11-01T09:30:29.842Z,98.91
2022-11-01T09:32:57.350Z,98.36
2022-11-01T09:35:24.855Z,100.00
2022-11-01T09:37:58.443Z,93.57
2022-11-01T09:40:26.203Z,91.04
2022-11-01T09:42:59.137Z,89.40
2022-11-01T09:45:33.540Z,87.43
2022-11-01T09:48:04.596Z,82.36
2022-11-01T09:50:35.547Z,81.47
2022-11-01T09:53:08.072Z,85.54
2022-11-01T09:55:44.591Z,86.85
2022-11-01T09:58:20.401Z,84.66
2022-11-01T10:00:57.311Z,80.09
2022-11-01T10:03:41.307Z,81.65
2022-11-01T10:06:17.903Z,86.38
2022-11-01T10:08:58.246Z,89.94
2022-11-01T10:11:48.298Z,96.81
2022-11-01T10:14:28.541Z,99.83
2022-11-01T10:17:07.588Z,97.42
2022-11-01T10:19:36.336Z,83.50
2022-11-01T10:22:08.683Z,72.05
2022-11-01T10:24:42.069Z,67.61
2022-11-01T10:27:16.421Z,68.95
2022-11-01T10:29:48.279Z,67.38
2022-11-01T10:32:29.192Z,69.42
2022-11-01T10:35:02.587Z,69.92
2022-11-01T10:37:40.982Z,72.72
2022-11-01T10:40:20.000Z,75.90
2022-11-01T10:42:47.536Z,78.18
2022-11-01T10:45:18.318Z,79.95
2022-11-01T10:47:49.349Z,78.92
2022-11-01T10:50:21.751Z,81.56
2022-11-01T10:52:52.677Z,82.02
2022-11-01T10:55:29.856Z,83.21
2022-11-01T10:58:01.994Z,84.43
2022-11-01T11:00:33.545Z,77.93
2022-11-01T11:03:13.755Z,77.11
2022-11-01T11:05:41.507Z,75.14
2022-11-01T11:08:15.990Z,78.42
2022-11-01T11:10:45.343Z,79.62
2022-11-01T11:13:16.122Z,82.66
2022-11-01T11:15:48.262Z,86.79
2022-11-01T11:18:25.098Z,91.70
2022-11-01T11:20:54.170Z,93.71
2022-11-01T11:23:23.421Z,95.08
2022-11-01T11:25:51.575Z,93.75
2022-11-01T11:28:26.512Z,92.32
2022-11-01T11:30:54.421Z,91.27
2022-11-01T11:33:23.599Z,94.98
2022-11-01T11:35:56.874Z,99.44
2022-11-01T11:38:43.259Z,100.00
2022-11-01T11:41:12.771Z,100.00
2022-11-01T11:43:42.458Z,100.00
2022-11-01T11:46:19.027Z,100.00
2022-11-01T11:48:53.081Z,100.00
2022-11-01T11:51:21.863Z,100.00
2022-11-01T11:54:15.574Z,99.05
2022-11-01T11:56:44.920Z,97.19
2022-11-01T11:59:22.888Z,96.93
2022-11-01T12:01:50.565Z,100.00
2022-11-01T12:04:21.208Z,100.00
2022-11-01T12:06:48.951Z,100.00
2022-11-01T12:09:35.907Z,100.00
2022-11-01T12:12:08.012Z,100.00
2022-11-01T12:14:38.892Z,100.00
2022-11-01T12:17:28.939Z,100.00
2022-11-01T12:20:15.349Z,100.00
2022-11-01T12:22:47.846Z,100.00
2022-11-01T12:25:19.005Z,100.00
2022-11-01T12:28:02.003Z,100.00
2022-11-01T12:30:34.470Z,100.00
2022-11-01T12:33:04.938Z,100.00
2022-11-01T12:35:38.975Z,100.00
2022-11-01T12:38:31.515Z,100.00
2022-11-01T12:41:05.389Z,100.00
2022-11-01T12:43:42.289Z,100.00
2022-11-01T12:46:17.522Z,100.00
2022-11-01T12:48:48.909Z,100.00
2022-11-01T12:51:25.932Z,100.00
2022-11-01T12:53:59.309Z,100.00
2022-11-01T12:56:27.160Z,100.00
2022-11-01T12:58:56.615Z,100.00
2022-11-01T13:01:34.900Z,100.00
2022-11-01T13:04:13.820Z,100.00
2022-11-01T13:06:56.345Z,96.11
2022-11-01T13:09:30.310Z,99.26
2022-11-01T13:12:06.842Z,97.58
2022-11-01T13:14:44.558Z,99.30
2022-11-01T13:17:20.055Z,100.00
2022-11-01T13:19:55.831Z,100.00
2022-11-01T13:22:34.470Z,99.09
2022-11-01T13:25:06.101Z,100.00
2022-11-01T13:27:39.914Z,100.00
2022-11-01T13:30:13.822Z,100.00
2022-11-01T13:32:50.748Z,100.00
2022-11-01T13:35:38.373Z,100.00
2022-11-01T13:38:19.527Z,100.00
2022-11-01T13:40:54.895Z,100.00
2022-11-01T13:43:25.537Z,100.00
2022-11-01T13:46:30.192Z,100.00
2022-11-01T13:49:34.202Z,100.00
2022-11-01T13:52:08.169Z,100.00
2022-11-01T13:54:44.541Z,100.00
2022-11-01T13:57:14.542Z,100.00
2022-11-01T13:59:55.148Z,100.00
2022-11-01T14:02:57.052Z,100.00
2022-11-01T14:05:37.784Z,100.00
2022-11-01T14:08:31.531Z,100.00
2022-11-01T14:11:00.373Z,100.00
2022-11-01T14:13:33.259Z,100.00
2022-11-01T14:16:24.993Z,100.00
2022-11-01T14:19:21.226Z,100.00
2022-11-01T14:21:52.997Z,100.00
2022-11-01T14:24:52.891Z,100.00
2022-11-01T14:27:24.328Z,100.00
2022-11-01T14:29:53.596Z,100.00
2022-11-01T14:32:23.797Z,100.00
2022-11-01T14:35:06.709Z,100.00
2022-11-01T14:37:41.059Z,100.00
2022-11-01T14:40:31.488Z,100.00
2022-11-01T14:43:06.880Z,100.00
2022-11-01T14:45:38.082Z,100.00
2022-11-01T14:48:18.062Z,100.00
2022-11-01T14:50:57.285Z,100.00
2022-11-01T14:53:30.057Z,100.00
2022-11-01T14:56:07.678Z,100.00
2022-11-01T14:58:37.159Z,100.00
2022-11-01T15:01:06.372Z,100.00
2022-11-01T15:03:34.251Z,100.00
2022-11-01T15:06:01.847Z,100.00
2022-11-01T15:08:31.942Z,100.00
2022-11-01T15:11:02.621Z,100.00
2022-11-01T15:13:33.693Z,100.00
2022-11-01T15:16:13.982Z,100.00
2022-11-01T15:18:48.132Z,100.00
2022-11-01T15:21:20.417Z,100.00
2022-11-01T15:23:51.604Z,100.00
2022-11-01T15:26:21.697Z,100.00
2022-11-01T15:28:52.301Z,100.00
2022-11-01T15:31:22.212Z,100.00
2022-11-01T15:33:58.695Z,100.00
2022-11-01T15:36:29.563Z,100.00
2022-11-01T15:38:59.507Z,100.00
2022-11-01T15:41:29.157Z,100.00
2022-11-01T15:43:59.096Z,100.00
2022-11-01T15:46:32.827Z,100.00
2022-11-01T15:49:05.657Z,100.00
2022-11-01T15:51:37.258Z,100.00
2022-11-01T15:54:17.403Z,100.00
2022-11-01T15:56:50.328Z,100.00
2022-11-01T15:59:27.106Z,100.00
2022-11-01T16:02:00.861Z,100.00
2022-11-01T16:04:35.956Z,100.00
2022-11-01T16:07:06.209Z,100.00
2022-11-01T16:09:38.950Z,100.00
2022-11-01T16:12:14.105Z,100.00
2022-11-01T16:14:42.289Z,100.00
2022-11-01T16:17:24.631Z,100.00
2022-11-01T16:19:52.671Z,100.00
2022-11-01T16:22:31.066Z,100.00
2022-11-01T16:25:13.268Z,100.00
2022-11-01T16:27:56.280Z,100.00
2022-11-01T16:30:46.630Z,100.00
2022-11-01T16:33:21.853Z,100.00
2022-11-01T16:35:51.207Z,100.00
2022-11-01T16:38:23.649Z,100.00
2022-11-01T16:40:54.710Z,100.00
2022-11-01T16:43:22.660Z,100.00
2022-11-01T16:45:50.548Z,100.00
2022-11-01T16:48:27.942Z,100.00
2022-11-01T16:50:57.725Z,100.00
2022-11-01T16:53:26.747Z,100.00
2022-11-01T16:56:10.859Z,100.00
2022-11-01T16:58:49.023Z,100.00
2022-11-01T17:01:22.573Z,100.00
2022-11-01T17:03:52.758Z,100.00
2022-11-01T17:06:20.902Z,100.00
2022-11-01T17:08:48.466Z,100.00
2022-11-01T17:11:15.972Z,100.00
2022-11-01T17:13:43.693Z,100.00
2022-11-01T17:16:18.640Z,100.00
2022-11-01T17:18:46.723Z,100.00
2022-11-01T17:21:15.878Z,100.00
2022-11-01T17:23:43.681Z,100.00
2022-11-01T17:26:14.126Z,100.00
2022-11-01T17:28:41.786Z,100.00
2022-11-01T17:31:09.363Z,100.00
2022-11-01T17:33:36.930Z,100.00
2022-11-01T17:36:04.861Z,100.00
2022-11-01T17:38:35.235Z,100.00
2022-11-01T17:41:07.185Z,100.00
2022-11-01T17:43:34.721Z,100.00
2022-11-01T17:46:02.597Z,100.00
2022-11-01T17:48:30.158Z,100.00
2022-11-01T17:51:00.991Z,100.00
2022-11-01T17:53:28.543Z,100.00
2022-11-01T17:55:58.272Z,100.00
2022-11-01T17:58:25.863Z,100.00
2022-11-01T18:00:53.449Z,100.00
2022-11-01T18:03:21.048Z,100.00
2022-11-01T18:05:48.570Z,100.00
2022-11-01T18:08:18.714Z,100.00
2022-11-01T18:10:56.006Z,100.00
2022-11-01T18:13:39.705Z,100.00
2022-11-01T18:16:15.215Z,100.00
2022-11-01T18:19:03.441Z,100.00
2022-11-01T18:21:33.432Z,100.00
2022-11-01T18:24:03.911Z,100.00
2022-11-01T18:26:31.450Z,100.00
2022-11-01T18:29:09.918Z,100.00
2022-11-01T18:31:42.595Z,100.00
2022-11-01T18:34:18.192Z,100.00
2022-11-01T18:36:53.464Z,100.00
2022-11-01T18:39:27.575Z,100.00
2022-11-01T18:41:55.157Z,100.00
2022-11-01T18:44:24.945Z,100.00
2022-11-01T18:46:57.562Z,100.00
2022-11-01T18:49:27.668Z,100.00
2022-11-01T18:51:55.557Z,100.00
2022-11-01T18:54:28.047Z,100.00
2022-11-01T18:56:57.699Z,100.00
2022-11-01T18:59:30.644Z,100.00
2022-11-01T19:02:10.199Z,100.00
2022-11-01T19:04:39.021Z,100.00
2022-11-01T19:07:12.506Z,100.00
2022-11-01T19:09:43.833Z,100.00
2022-11-01T19:12:18.298Z,100.00
2022-11-01T19:14:52.166Z,100.00
2022-11-01T19:17:23.454Z,100.00
2022-11-01T19:19:52.527Z,100.00
2022-11-01T19:22:32.606Z,100.00
2022-11-01T19:25:01.250Z,100.00
2022-11-01T19:27:29.527Z,100.00
2022-11-01T19:29:59.810Z,100.00
2022-11-01T19:32:27.446Z,100.00
2022-11-01T19:34:55.983Z,100.00
2022-11-01T19:37:31.637Z,100.00
2022-11-01T19:40:02.437Z,100.00
2022-11-01T19:42:32.335Z,100.00
2022-11-01T19:45:20.265Z,100.00
2022-11-01T19:47:50.799Z,100.00
2022-11-01T19:50:22.540Z,100.00
2022-11-01T19:52:51.913Z,100.00
2022-11-01T19:55:37.603Z,100.00
2022-11-01T19:58:22.602Z,100.00
2022-11-01T20:00:59.380Z,100.00
2022-11-01T20:03:39.234Z,100.00
2022-11-01T20:06:12.672Z,100.00
2022-11-01T20:08:40.497Z,100.00
2022-11-01T20:11:08.244Z,100.00
2022-11-01T20:13:35.759Z,100.00
2022-11-01T20:16:04.666Z,100.00
2022-11-01T20:18:32.209Z,100.00
2022-11-01T20:20:59.773Z,100.00
2022-11-01T20:23:27.524Z,100.00
2022-11-01T20:25:55.273Z,100.00
2022-11-01T20:28:22.850Z,100.00
2022-11-01T20:30:50.408Z,100.00
2022-11-01T20:33:19.282Z,100.00
2022-11-01T20:35:46.808Z,100.00
2022-11-01T20:38:14.560Z,100.00
2022-11-01T20:40:42.217Z,100.00
2022-11-01T20:43:09.754Z,100.00
2022-11-01T20:45:37.352Z,100.00
2022-11-01T20:48:07.314Z,100.00
2022-11-01T20:50:36.703Z,100.00
2022-11-01T20:53:06.401Z,100.00
2022-11-01T20:55:34.603Z,100.00
2022-11-01T20:58:03.812Z,100.00
2022-11-01T21:00:32.169Z,100.00
2022-11-01T21:03:02.915Z,100.00
2022-11-01T21:05:34.630Z,100.00
2022-11-01T21:08:12.919Z,100.00
2022-11-01T21:10:41.946Z,100.00
2022-11-01T21:13:25.019Z,100.00
2022-11-01T21:15:53.742Z,100.00
2022-11-01T21:18:33.480Z,100.00
2022-11-01T21:21:26.741Z,100.00
2022-11-01T21:23:57.268Z,100.00
2022-11-01T21:26:28.695Z,100.00
2022-11-01T21:29:02.699Z,100.00
2022-11-01T21:31:32.515Z,100.00
2022-11-01T21:34:02.918Z,100.00
2022-11-01T21:36:34.670Z,100.00
2022-11-01T21:39:09.943Z,100.00
2022-11-01T21:41:41.635Z,100.00
2022-11-01T21:44:21.527Z,100.00
2022-11-01T21:46:50.738Z,100.00
2022-11-01T21:49:31.820Z,100.00
2022-11-01T21:52:01.138Z,100.00
2022-11-01T21:54:33.866Z,100.00
2022-11-01T21:57:02.212Z,100.00
2022-11-01T21:59:30.327Z,100.00
2022-11-01T22:02:01.132Z,100.00
2022-11-01T22:04:30.871Z,100.00
2022-11-01T22:06:58.569Z,100.00
2022-11-01T22:09:27.539Z,100.00
2022-11-01T22:11:56.754Z,100.00
2022-11-01T22:14:24.881Z,100.00
2022-11-01T22:16:52.757Z,100.00
2022-11-01T22:19:20.275Z,100.00
2022-11-01T22:21:47.819Z,100.00
2022-11-01T22:24:15.349Z,100.00
2022-11-01T22:26:42.963Z,100.00
2022-11-01T22:29:12.115Z,100.00
2022-11-01T22:31:39.696Z,100.00
2022-11-01T22:34:07.231Z,100.00
2022-11-01T22:36:36.675Z,100.00
2022-11-01T22:39:15.286Z,100.00
2022-11-01T22:41:42.989Z,100.00
2022-11-01T22:44:17.251Z,100.00
2022-11-01T22:46:49.403Z,100.00
2022-11-01T22:49:24.169Z,100.00
2022-11-01T22:51:56.555Z,100.00
2022-11-01T22:54:33.798Z,100.00
2022-11-01T22:57:04.069Z,100.00
2022-11-01T22:59:35.723Z,100.00
2022-11-01T23:02:23.383Z,100.00
2022-11-01T23:04:53.635Z,100.00
2022-11-01T23:07:29.334Z,100.00
2022-11-01T23:10:05.034Z,100.00
2022-11-01T23:12:51.563Z,100.00
2022-11-01T23:15:26.299Z,100.00
2022-11-01T23:17:53.913Z,100.00
2022-11-01T23:20:21.431Z,100.00
2022-11-01T23:22:49.245Z,100.00
2022-11-01T23:25:16.776Z,100.00
2022-11-01T23:27:45.711Z,100.00
2022-11-01T23:30:13.614Z,100.00
2022-11-01T23:32:42.481Z,100.00
2022-11-01T23:35:15.019Z,100.00
2022-11-01T23:37:44.069Z,100.00
2022-11-01T23:40:16.014Z,100.00
2022-11-01T23:42:43.746Z,100.00
2022-11-01T23:45:22.683Z,100.00
2022-11-01T23:47:51.746Z,100.00
2022-11-01T23:50:23.211Z,100.00
2022-11-01T23:52:55.558Z,100.00
2022-11-01T23:55:27.406Z,100.00
2022-11-01T23:57:56.348Z,100.00
